createdAt,value
2022-12-24T19:25:44.436Z,3.57
2022-12-24T19:28:25.615Z,4.53
2022-12-24T19:33:27.336Z,4.27
2022-12-24T19:36:05.147Z,5.83
2022-12-24T19:38:36.186Z,4.93
2022-12-24T19:41:23.292Z,4.00
2022-12-24T19:43:55.119Z,5.40
2022-12-24T19:46:31.729Z,5.63
2022-12-24T19:49:10.017Z,9.27
2022-12-24T19:51:40.763Z,5.57
2022-12-24T19:54:18.599Z,6.23
2022-12-24T19:56:50.864Z,9.97
2022-12-24T19:59:21.953Z,8.18
2022-12-24T20:01:50.610Z,8.80
2022-12-24T20:04:25.391Z,5.00
2022-12-24T20:07:00.145Z,5.53
2022-12-24T20:09:34.368Z,7.53
2022-12-24T20:12:02.545Z,6.67
2022-12-24T20:14:34.037Z,4.43
2022-12-24T20:17:09.149Z,2.83
2022-12-24T20:19:38.162Z,3.67
2022-12-24T20:22:12.852Z,2.17
2022-12-24T20:24:43.744Z,1.50
2022-12-24T20:27:35.411Z,3.00
2022-12-24T20:30:09.349Z,1.40
2022-12-24T20:35:31.168Z,2.70
2022-12-24T20:38:16.207Z,3.20
2022-12-24T20:40:47.298Z,1.67
2022-12-24T20:43:22.400Z,2.55
2022-12-24T20:46:07.893Z,2.20
2022-12-24T20:48:37.072Z,3.10
2022-12-24T20:51:20.931Z,2.67
2022-12-24T20:54:04.516Z,3.37
2022-12-24T20:56:33.441Z,4.90
2022-12-24T20:59:10.883Z,4.50
2022-12-24T21:01:40.650Z,8.50
2022-12-24T21:04:11.707Z,9.37
2022-12-24T21:06:41.098Z,7.30
2022-12-24T21:09:11.974Z,5.67
2022-12-24T21:12:02.134Z,6.27
